KFOD

Fort Dodge Regional Airport

Fort Dodge, Iowa, USA
METAR KFOD 110156Z AUTO 20008KT 10SM CLR M07/M08 A3010 RMK AO2 SLP242 T10671083 FZRANO
Observed Flight Rules
Dec-11 @ 01:56 UTC (39 minutes ago) Visual Flight Rules
Wind Visibility Clouds
200° at 8 knots 10 miles
  • Clear skies
Temperatures Readings
Current -7°C / 19°F
Dewpoint -8°C / 18°F
Humidity 93%
Altimeter 30.1" Hg
Pressure 1024.2 hPa
Elevation 355
METAR KFOD 110156Z AUTO 20008KT 10SM CLR M07/M08 A3010 RMK AO2 SLP242 T10671083 FZRANO
Observed Flight Rules
Dec-11 @ 01:56 UTC
(39 minutes ago)
VFR
Wind Visibility
200° at 8 knots 10 miles
Clouds
  • Clear skies
Temperature Dewpoint
-7°C / 19°F -8°C / 18°F
Humidity Altimeter Pressure
93% 30.1" Hg 1024.2 hPa